createdAt,value
2018-04-30T00:01:38.688Z,16.60
2018-04-30T00:03:42.048Z,16.60
2018-04-30T00:05:44.654Z,16.60
2018-04-30T00:07:47.999Z,16.70
2018-04-30T00:09:51.396Z,16.70
2018-04-30T00:11:54.757Z,16.70
2018-04-30T00:13:57.336Z,16.60
2018-04-30T00:15:59.949Z,16.70
2018-04-30T00:18:02.544Z,16.60
2018-04-30T00:20:05.172Z,16.60
2018-04-30T00:22:07.788Z,16.70
2018-04-30T00:24:10.379Z,16.70
2018-04-30T00:26:13.752Z,16.80
2018-04-30T00:28:16.351Z,16.80
2018-04-30T00:30:19.758Z,16.70
2018-04-30T00:32:22.341Z,16.80
2018-04-30T00:34:24.936Z,16.70
2018-04-30T00:36:27.547Z,16.80
2018-04-30T00:38:30.129Z,16.80
2018-04-30T00:40:33.590Z,16.70
2018-04-30T00:42:36.161Z,16.70
2018-04-30T00:44:38.784Z,16.70
2018-04-30T00:46:41.396Z,16.70
2018-04-30T00:48:43.991Z,16.70
2018-04-30T00:50:46.588Z,16.70
2018-04-30T00:52:49.197Z,16.60
2018-04-30T00:55:00.586Z,16.50
2018-04-30T00:57:03.200Z,16.50
2018-04-30T00:59:05.792Z,16.50
2018-04-30T01:01:08.388Z,16.50
2018-04-30T01:03:10.972Z,16.10
2018-04-30T01:05:13.549Z,16.10
2018-04-30T01:07:16.155Z,16.20
2018-04-30T01:09:19.564Z,16.20
2018-04-30T01:11:22.159Z,16.20
2018-04-30T01:13:25.559Z,16.30
2018-04-30T01:15:28.918Z,16.30
2018-04-30T01:17:31.567Z,16.30
2018-04-30T01:19:34.200Z,16.30
2018-04-30T01:21:37.584Z,16.20
2018-04-30T01:23:40.175Z,16.20
2018-04-30T01:25:43.532Z,15.90
2018-04-30T01:27:46.149Z,15.80
2018-04-30T01:29:48.779Z,15.90
2018-04-30T01:31:51.401Z,15.90
2018-04-30T01:33:53.987Z,15.80
2018-04-30T01:35:56.577Z,15.80
2018-04-30T01:37:59.184Z,15.90
2018-04-30T01:40:01.778Z,15.80
2018-04-30T01:42:05.221Z,15.60
2018-04-30T01:44:07.924Z,15.60
2018-04-30T01:46:10.529Z,15.60
2018-04-30T01:48:13.888Z,15.40
2018-04-30T01:50:16.509Z,15.50
2018-04-30T01:52:19.129Z,15.50
2018-04-30T01:54:21.721Z,15.50
2018-04-30T01:56:24.305Z,15.50
2018-04-30T01:58:27.702Z,15.20
2018-04-30T02:00:31.087Z,15.20
2018-04-30T02:02:33.683Z,15.20
2018-04-30T02:04:37.028Z,15.10
2018-04-30T02:06:39.624Z,15.00
2018-04-30T02:08:42.240Z,15.20
2018-04-30T02:10:44.828Z,15.10
2018-04-30T02:12:47.448Z,15.00
2018-04-30T02:14:50.130Z,15.00
2018-04-30T02:16:52.903Z,15.20
2018-04-30T02:18:55.488Z,15.10
2018-04-30T02:20:58.863Z,15.00
2018-04-30T02:23:01.473Z,15.00
2018-04-30T02:25:04.054Z,15.00
2018-04-30T02:27:06.663Z,15.00
2018-04-30T02:29:09.252Z,15.00
2018-04-30T02:31:11.847Z,15.10
2018-04-30T02:33:15.248Z,15.10
2018-04-30T02:35:18.621Z,15.00
2018-04-30T02:37:21.218Z,15.00
2018-04-30T02:39:24.564Z,14.90
2018-04-30T02:41:27.174Z,14.90
2018-04-30T02:43:29.776Z,14.80
2018-04-30T02:45:33.233Z,14.60
2018-04-30T02:47:35.828Z,14.60
2018-04-30T02:49:39.174Z,14.40
2018-04-30T02:51:41.769Z,14.30
2018-04-30T02:53:44.384Z,14.40
2018-04-30T02:55:46.961Z,14.40
2018-04-30T02:57:49.565Z,14.40
2018-04-30T02:59:52.147Z,14.30
2018-04-30T03:01:54.728Z,14.20
2018-04-30T03:03:57.331Z,14.20
2018-04-30T03:06:00.724Z,14.20
2018-04-30T03:08:04.125Z,14.20
2018-04-30T03:10:07.471Z,14.30
2018-04-30T03:12:10.181Z,14.30
2018-04-30T03:14:13.576Z,14.30
2018-04-30T03:16:16.932Z,14.50
2018-04-30T03:18:19.537Z,14.40
2018-04-30T03:20:22.128Z,14.50
2018-04-30T03:22:25.537Z,14.40
2018-04-30T03:24:28.151Z,14.40
2018-04-30T03:26:30.726Z,14.60
2018-04-30T03:28:33.336Z,14.60
2018-04-30T03:30:36.684Z,14.60
2018-04-30T03:32:39.271Z,14.60
2018-04-30T03:34:41.864Z,14.50
2018-04-30T03:36:44.444Z,14.50
2018-04-30T03:38:47.815Z,14.30
2018-04-30T03:40:50.415Z,14.30
2018-04-30T03:42:53.761Z,14.10
2018-04-30T03:44:57.123Z,13.90
2018-04-30T03:46:59.697Z,13.90
2018-04-30T03:49:02.303Z,13.90
2018-04-30T03:51:05.000Z,13.90
2018-04-30T03:53:07.584Z,13.90
2018-04-30T03:55:10.197Z,14.10
2018-04-30T03:57:12.779Z,14.10
2018-04-30T03:59:15.387Z,14.00
2018-04-30T04:01:29.816Z,13.90
2018-04-30T04:03:44.120Z,13.80
2018-04-30T04:05:59.208Z,13.60
2018-04-30T04:08:01.812Z,13.60
2018-04-30T04:10:04.417Z,13.50
2018-04-30T04:12:07.028Z,13.40
2018-04-30T04:14:09.630Z,13.30
2018-04-30T04:16:12.208Z,13.10
2018-04-30T04:18:14.793Z,13.10
2018-04-30T04:20:17.412Z,13.10
2018-04-30T04:22:20.771Z,13.30
2018-04-30T04:24:23.392Z,13.30
2018-04-30T04:26:25.996Z,13.30
2018-04-30T04:28:28.596Z,13.20
2018-04-30T04:30:31.212Z,13.20
2018-04-30T04:32:33.792Z,13.20
2018-04-30T04:34:37.192Z,13.00
2018-04-30T04:36:39.787Z,13.00
2018-04-30T04:38:42.376Z,12.60
2018-04-30T04:40:44.995Z,12.60
2018-04-30T04:42:48.350Z,12.70
2018-04-30T04:44:50.954Z,12.70
2018-04-30T04:46:54.296Z,12.70
2018-04-30T04:48:56.883Z,12.70
2018-04-30T04:50:59.484Z,12.70
2018-04-30T04:53:02.068Z,12.90
2018-04-30T04:55:05.537Z,12.80
2018-04-30T04:57:08.111Z,12.80
2018-04-30T04:59:10.741Z,12.70
2018-04-30T05:01:13.328Z,12.80
2018-04-30T05:03:15.924Z,12.90
2018-04-30T05:05:18.563Z,13.10
2018-04-30T05:07:21.144Z,13.20
2018-04-30T05:09:23.752Z,13.30
2018-04-30T05:11:26.330Z,13.30
2018-04-30T05:13:28.918Z,13.30
2018-04-30T05:15:31.753Z,13.30
2018-04-30T05:17:34.346Z,13.40
2018-04-30T05:19:36.952Z,13.40
2018-04-30T05:21:40.311Z,13.40
2018-04-30T05:23:42.896Z,13.40
2018-04-30T05:25:45.505Z,13.20
2018-04-30T05:27:48.104Z,13.20
2018-04-30T05:29:50.748Z,13.30
2018-04-30T05:31:54.096Z,13.20
2018-04-30T05:33:56.721Z,13.10
2018-04-30T05:36:00.097Z,13.20
2018-04-30T05:38:03.449Z,13.30
2018-04-30T05:40:06.057Z,13.30
2018-04-30T05:42:08.623Z,13.40
2018-04-30T05:44:11.203Z,13.50
2018-04-30T05:46:14.585Z,13.40
2018-04-30T05:48:17.172Z,13.40
2018-04-30T05:50:19.823Z,13.60
2018-04-30T05:52:22.416Z,13.60
2018-04-30T05:54:25.004Z,13.30
2018-04-30T05:56:28.363Z,13.40
2018-04-30T05:58:31.715Z,13.30
2018-04-30T06:00:34.361Z,13.30
2018-04-30T06:02:37.745Z,13.40
2018-04-30T06:04:40.336Z,13.40
2018-04-30T06:06:43.712Z,13.50
2018-04-30T06:08:46.288Z,13.50
2018-04-30T06:10:49.662Z,13.60
2018-04-30T06:12:52.364Z,13.60
2018-04-30T06:14:55.715Z,13.60
2018-04-30T06:16:58.320Z,13.60
2018-04-30T06:19:00.928Z,13.70
2018-04-30T06:21:03.556Z,13.60
2018-04-30T06:23:06.196Z,13.60
2018-04-30T06:25:08.776Z,13.60
2018-04-30T06:27:11.380Z,13.50
2018-04-30T06:29:13.972Z,13.50
2018-04-30T06:31:16.592Z,13.60
2018-04-30T06:33:19.172Z,13.60
2018-04-30T06:35:21.760Z,13.60
2018-04-30T06:37:24.384Z,13.60
2018-04-30T06:39:26.984Z,13.80
2018-04-30T06:41:29.584Z,13.90
2018-04-30T06:43:32.960Z,13.90
2018-04-30T06:45:35.565Z,13.90
2018-04-30T06:47:38.202Z,13.90
2018-04-30T06:49:40.788Z,14.00
2018-04-30T06:51:43.391Z,14.10
2018-04-30T06:53:46.027Z,14.10
2018-04-30T06:55:48.604Z,13.90
2018-04-30T06:57:51.199Z,13.80
2018-04-30T06:59:53.803Z,13.70
2018-04-30T07:01:56.391Z,13.60
2018-04-30T07:03:59.763Z,13.60
2018-04-30T07:06:02.357Z,13.60
2018-04-30T07:08:05.717Z,13.50
2018-04-30T07:10:08.329Z,13.50
2018-04-30T07:12:11.712Z,13.40
2018-04-30T07:14:15.088Z,13.40
2018-04-30T07:16:17.711Z,13.40
2018-04-30T07:18:20.299Z,13.50
2018-04-30T07:20:22.930Z,13.40
2018-04-30T07:22:26.315Z,13.40
2018-04-30T07:24:29.712Z,13.40
2018-04-30T07:26:33.143Z,13.40
2018-04-30T07:28:35.733Z,13.40
2018-04-30T07:30:38.324Z,13.60
2018-04-30T07:32:40.961Z,13.50
2018-04-30T07:34:43.534Z,13.60
2018-04-30T07:36:46.151Z,13.70
2018-04-30T07:38:48.736Z,14.00
2018-04-30T07:40:51.341Z,14.10
2018-04-30T07:42:53.952Z,14.20
2018-04-30T07:44:56.557Z,14.40
2018-04-30T07:46:59.173Z,14.20
2018-04-30T07:49:01.776Z,14.20
2018-04-30T07:51:04.396Z,14.40
2018-04-30T07:53:07.780Z,14.40
2018-04-30T07:55:10.364Z,14.40
2018-04-30T07:57:13.759Z,14.30
2018-04-30T07:59:17.146Z,14.40
2018-04-30T08:01:20.551Z,14.50
2018-04-30T08:03:23.941Z,14.70
2018-04-30T08:05:27.293Z,14.50
2018-04-30T08:07:29.911Z,14.50
2018-04-30T08:09:33.643Z,14.50
2018-04-30T08:11:36.284Z,14.50
2018-04-30T08:13:39.680Z,14.40
2018-04-30T08:15:43.043Z,14.10
2018-04-30T08:17:45.659Z,14.10
2018-04-30T08:19:48.239Z,14.20
2018-04-30T08:21:50.824Z,14.30
2018-04-30T08:23:53.471Z,14.40
2018-04-30T08:25:56.828Z,14.70
2018-04-30T08:27:59.460Z,14.70
2018-04-30T08:30:02.124Z,14.80
2018-04-30T08:32:04.702Z,14.90
2018-04-30T08:34:07.334Z,15.10
2018-04-30T08:36:09.918Z,15.10
2018-04-30T08:38:13.299Z,14.80
2018-04-30T08:40:15.944Z,14.70
2018-04-30T08:42:18.548Z,14.90
2018-04-30T08:44:21.164Z,14.90
2018-04-30T08:46:23.747Z,14.90
2018-04-30T08:48:26.376Z,15.00
2018-04-30T08:50:28.983Z,15.00
2018-04-30T08:52:31.561Z,15.10
2018-04-30T08:54:34.179Z,15.20
2018-04-30T08:56:37.561Z,15.50
2018-04-30T08:58:40.184Z,15.50
2018-04-30T09:00:43.580Z,15.70
2018-04-30T09:02:46.955Z,16.00
2018-04-30T09:04:49.545Z,16.00
2018-04-30T09:06:52.923Z,16.30
2018-04-30T09:08:55.554Z,16.30
2018-04-30T09:10:58.152Z,16.40
2018-04-30T09:13:00.749Z,16.70
2018-04-30T09:15:03.475Z,16.90
2018-04-30T09:17:05.992Z,16.90
2018-04-30T09:19:08.625Z,16.70
2018-04-30T09:21:11.247Z,16.50
2018-04-30T09:23:13.835Z,16.50
2018-04-30T09:25:17.280Z,16.10
2018-04-30T09:27:19.920Z,16.10
2018-04-30T09:29:22.525Z,16.10
2018-04-30T09:31:25.144Z,16.10
2018-04-30T09:33:28.499Z,16.10
2018-04-30T09:35:31.129Z,16.10
2018-04-30T09:37:33.713Z,16.00
2018-04-30T09:39:36.320Z,15.80
2018-04-30T09:41:38.891Z,15.70
2018-04-30T09:43:41.804Z,15.80
2018-04-30T09:45:44.386Z,16.00
2018-04-30T09:47:47.772Z,16.00
2018-04-30T09:49:50.400Z,16.00
2018-04-30T09:51:52.950Z,16.10
2018-04-30T09:53:55.557Z,16.20
2018-04-30T09:55:58.148Z,16.20
2018-04-30T09:58:00.765Z,16.50
2018-04-30T10:00:04.151Z,16.90
2018-04-30T10:02:07.511Z,17.20
2018-04-30T10:04:10.202Z,17.20
2018-04-30T10:06:12.800Z,17.40
2018-04-30T10:08:16.151Z,17.10
2018-04-30T10:10:18.755Z,17.10
2018-04-30T10:12:22.116Z,17.00
2018-04-30T10:14:24.712Z,17.00
2018-04-30T10:16:27.315Z,17.00
2018-04-30T10:18:29.935Z,16.80
2018-04-30T10:20:32.532Z,16.80
2018-04-30T10:22:35.195Z,16.90
2018-04-30T10:24:37.805Z,17.10
2018-04-30T10:26:41.178Z,17.40
2018-04-30T10:28:43.758Z,17.40
2018-04-30T10:30:47.124Z,17.40
2018-04-30T10:32:49.771Z,17.40
2018-04-30T10:34:52.534Z,17.40
2018-04-30T10:36:55.148Z,17.50
2018-04-30T10:38:57.851Z,17.50
2018-04-30T10:41:01.248Z,18.00
2018-04-30T10:43:03.852Z,18.00
2018-04-30T10:45:06.540Z,18.20
2018-04-30T10:47:12.502Z,18.30
2018-04-30T10:49:15.264Z,18.30
2018-04-30T10:51:17.866Z,18.20
2018-04-30T10:53:20.472Z,18.30
2018-04-30T10:55:23.313Z,18.30
2018-04-30T10:57:25.907Z,18.40
2018-04-30T10:59:29.220Z,18.50
2018-04-30T11:01:32.596Z,18.60
2018-04-30T11:03:35.187Z,18.50
2018-04-30T11:05:40.089Z,18.60
2018-04-30T11:07:43.231Z,18.20
2018-04-30T11:09:46.057Z,18.00
2018-04-30T11:11:49.096Z,18.10
2018-04-30T11:13:51.694Z,18.30
2018-04-30T11:15:55.125Z,18.50
2018-04-30T11:17:57.707Z,18.70
2018-04-30T11:20:01.072Z,19.00
2018-04-30T11:22:03.720Z,19.00
2018-04-30T11:24:06.363Z,19.10
2018-04-30T11:26:08.959Z,19.00
2018-04-30T11:28:11.816Z,18.90
2018-04-30T11:30:15.469Z,18.80
2018-04-30T11:32:18.093Z,18.80
2018-04-30T11:34:22.392Z,18.80
2018-04-30T11:36:25.177Z,18.80
2018-04-30T11:38:27.795Z,18.60
2018-04-30T11:40:30.411Z,18.50
2018-04-30T11:42:33.826Z,18.40
2018-04-30T11:44:37.378Z,18.30
2018-04-30T11:46:40.000Z,18.50
2018-04-30T11:48:42.598Z,18.50
2018-04-30T11:50:45.224Z,18.70
2018-04-30T11:52:48.619Z,19.10
2018-04-30T11:54:51.988Z,19.20
2018-04-30T11:56:54.637Z,19.20
2018-04-30T11:58:57.292Z,19.30
2018-04-30T12:00:59.880Z,19.20
2018-04-30T12:03:02.508Z,19.10
2018-04-30T12:05:05.175Z,19.00
2018-04-30T12:07:07.796Z,18.80
2018-04-30T12:09:10.402Z,18.80
2018-04-30T12:11:13.043Z,18.70
2018-04-30T12:13:15.663Z,18.60
2018-04-30T12:15:18.268Z,18.40
2018-04-30T12:17:21.658Z,18.40
2018-04-30T12:19:25.021Z,18.60
2018-04-30T12:21:27.663Z,18.50
2018-04-30T12:23:30.265Z,18.70
2018-04-30T12:25:32.855Z,18.70
2018-04-30T12:27:35.473Z,18.80
2018-04-30T12:29:38.170Z,18.90
2018-04-30T12:31:40.780Z,19.00
2018-04-30T12:33:43.404Z,19.00
2018-04-30T12:35:46.009Z,19.20
2018-04-30T12:37:48.616Z,19.10
2018-04-30T12:39:51.263Z,19.00
2018-04-30T12:41:53.879Z,18.90
2018-04-30T12:43:57.268Z,19.30
2018-04-30T12:46:00.623Z,19.40
2018-04-30T12:48:03.299Z,19.40
2018-04-30T12:50:05.891Z,19.20
2018-04-30T12:52:08.515Z,19.10
2018-04-30T12:54:11.100Z,19.00
2018-04-30T12:56:13.730Z,18.90
2018-04-30T12:58:16.356Z,18.80
2018-04-30T13:00:18.960Z,18.80
2018-04-30T13:02:21.585Z,18.90
2018-04-30T13:04:24.190Z,19.10
2018-04-30T13:06:26.812Z,19.30
2018-04-30T13:08:29.465Z,19.30
2018-04-30T13:10:32.836Z,19.30
2018-04-30T13:12:35.503Z,19.20
2018-04-30T13:14:38.880Z,19.10
2018-04-30T13:16:41.479Z,19.10
2018-04-30T13:18:44.111Z,19.00
2018-04-30T13:20:46.699Z,19.20
2018-04-30T13:22:49.311Z,19.20
2018-04-30T13:24:51.980Z,19.20
2018-04-30T13:26:54.573Z,19.30
2018-04-30T13:28:57.188Z,19.30
2018-04-30T13:30:59.924Z,19.30
2018-04-30T13:33:02.516Z,19.40
2018-04-30T13:35:05.892Z,19.40
2018-04-30T13:37:08.533Z,19.40
2018-04-30T13:39:11.136Z,19.40
2018-04-30T13:41:13.728Z,19.30
2018-04-30T13:43:17.100Z,19.30
2018-04-30T13:45:19.685Z,19.20
2018-04-30T13:47:22.316Z,19.30
2018-04-30T13:49:24.907Z,19.30
2018-04-30T13:51:27.508Z,19.20
2018-04-30T13:53:30.155Z,19.30
2018-04-30T13:55:32.756Z,19.30
2018-04-30T13:57:35.383Z,19.20
2018-04-30T13:59:37.968Z,19.30
2018-04-30T14:01:40.552Z,19.20
2018-04-30T14:03:43.233Z,19.10
2018-04-30T14:05:45.809Z,19.10
2018-04-30T14:07:48.408Z,19.20
2018-04-30T14:09:51.008Z,19.30
2018-04-30T14:11:54.382Z,19.30
2018-04-30T14:13:57.764Z,19.40
2018-04-30T14:16:00.435Z,19.40
2018-04-30T14:18:02.994Z,19.40
2018-04-30T14:20:05.571Z,19.40
2018-04-30T14:22:08.208Z,19.20
2018-04-30T14:24:10.815Z,19.20
2018-04-30T14:26:13.407Z,19.20
2018-04-30T14:28:16.820Z,19.40
2018-04-30T14:30:20.170Z,19.50
2018-04-30T14:32:22.757Z,19.50
2018-04-30T14:34:25.372Z,19.40
2018-04-30T14:36:28.011Z,19.30
2018-04-30T14:38:30.939Z,19.30
2018-04-30T14:40:33.535Z,19.30
2018-04-30T14:42:36.152Z,19.30
2018-04-30T14:44:38.782Z,19.30
2018-04-30T14:46:41.371Z,19.20
2018-04-30T14:48:44.108Z,19.00
2018-04-30T14:50:46.723Z,18.70
2018-04-30T14:52:49.300Z,18.70
2018-04-30T14:54:51.916Z,18.70
2018-04-30T14:56:55.271Z,18.70
2018-04-30T14:58:57.899Z,18.70
2018-04-30T15:01:00.476Z,18.70
2018-04-30T15:03:03.196Z,18.60
2018-04-30T15:05:05.831Z,18.60
2018-04-30T15:07:08.454Z,18.60
2018-04-30T15:09:11.075Z,18.60
2018-04-30T15:11:13.684Z,18.60
2018-04-30T15:15:25.861Z,18.40
2018-04-30T15:17:28.451Z,18.40
2018-04-30T15:19:31.100Z,18.40
2018-04-30T15:21:33.687Z,18.40
2018-04-30T15:23:36.276Z,18.50
2018-04-30T15:25:38.886Z,18.60
2018-04-30T15:27:41.524Z,18.60
2018-04-30T15:29:44.208Z,18.60
2018-04-30T15:31:46.813Z,18.30
2018-04-30T15:33:50.253Z,18.30
2018-04-30T15:35:52.884Z,18.20
2018-04-30T15:37:55.448Z,18.10
2018-04-30T15:39:58.119Z,18.00
2018-04-30T15:42:00.800Z,17.90
2018-04-30T15:44:03.772Z,17.80
2018-04-30T15:46:06.413Z,17.90
2018-04-30T15:48:09.008Z,17.90
2018-04-30T15:50:11.630Z,18.00
2018-04-30T15:52:14.984Z,17.90
2018-04-30T15:54:17.592Z,17.90
2018-04-30T15:56:20.199Z,17.90
2018-04-30T15:58:22.788Z,18.10
2018-04-30T16:00:25.416Z,18.20
2018-04-30T16:02:28.009Z,18.20
2018-04-30T16:04:31.400Z,18.30
2018-04-30T16:06:34.763Z,18.20
2018-04-30T16:08:37.397Z,18.10
2018-04-30T16:10:40.008Z,17.90
2018-04-30T16:12:42.608Z,18.00
2018-04-30T16:14:45.987Z,17.70
2018-04-30T16:16:48.580Z,17.70
2018-04-30T16:18:51.971Z,17.70
2018-04-30T16:20:55.399Z,17.80
2018-04-30T16:22:57.984Z,17.80
2018-04-30T16:25:00.608Z,18.10
2018-04-30T16:27:03.976Z,17.80
2018-04-30T16:29:06.560Z,17.80
2018-04-30T16:31:09.172Z,17.60
2018-04-30T16:33:11.769Z,17.50
2018-04-30T16:35:14.400Z,17.30
2018-04-30T16:37:17.819Z,17.20
2018-04-30T16:39:20.428Z,17.20
2018-04-30T16:41:23.044Z,17.10
2018-04-30T16:43:26.419Z,16.90
2018-04-30T16:45:29.038Z,16.90
2018-04-30T16:47:31.620Z,16.80
2018-04-30T16:49:34.307Z,16.90
2018-04-30T16:51:36.911Z,17.30
2018-04-30T16:53:39.536Z,17.70
2018-04-30T16:55:42.143Z,17.80
2018-04-30T16:57:44.745Z,17.80
2018-04-30T16:59:47.353Z,17.60
2018-04-30T17:01:49.968Z,17.80
2018-04-30T17:03:52.652Z,18.10
2018-04-30T17:05:55.980Z,17.90
2018-04-30T17:07:59.328Z,17.50
2018-04-30T17:10:02.284Z,17.40
2018-04-30T17:12:04.972Z,17.10
2018-04-30T17:14:07.566Z,16.80
2018-04-30T17:16:10.180Z,16.50
2018-04-30T17:18:13.536Z,16.30
2018-04-30T17:20:16.163Z,16.20
2018-04-30T17:22:18.760Z,16.30
2018-04-30T17:24:21.349Z,16.20
2018-04-30T17:26:23.972Z,16.40
2018-04-30T17:28:27.328Z,16.30
2018-04-30T17:30:30.108Z,16.20
2018-04-30T17:32:33.395Z,16.00
2018-04-30T17:34:35.978Z,16.00
2018-04-30T17:36:38.595Z,15.90
2018-04-30T17:38:41.180Z,15.70
2018-04-30T17:40:43.784Z,15.80
2018-04-30T17:42:46.394Z,15.80
2018-04-30T17:44:49.016Z,15.80
2018-04-30T17:46:51.650Z,15.70
2018-04-30T17:48:54.237Z,15.80
2018-04-30T17:50:56.887Z,15.80
2018-04-30T17:53:00.255Z,15.90
2018-04-30T17:55:02.868Z,15.90
2018-04-30T17:57:06.256Z,15.80
2018-04-30T17:59:09.599Z,15.80
2018-04-30T18:01:12.319Z,15.80
2018-04-30T18:03:15.661Z,15.90
2018-04-30T18:05:18.240Z,15.90
2018-04-30T18:07:20.856Z,15.90
2018-04-30T18:09:23.459Z,15.90
2018-04-30T18:11:26.072Z,16.10
2018-04-30T18:13:28.685Z,16.10
2018-04-30T18:15:32.059Z,16.00
2018-04-30T18:17:34.933Z,16.00
2018-04-30T18:19:37.516Z,16.00
2018-04-30T18:21:40.303Z,16.00
2018-04-30T18:23:42.895Z,15.80
2018-04-30T18:25:46.265Z,15.90
2018-04-30T18:27:48.962Z,15.80
2018-04-30T18:29:51.575Z,15.70
2018-04-30T18:31:54.189Z,15.60
2018-04-30T18:33:56.793Z,15.40
2018-04-30T18:35:59.391Z,15.50
2018-04-30T18:38:02.005Z,15.60
2018-04-30T18:40:04.581Z,15.60
2018-04-30T18:42:07.199Z,15.40
2018-04-30T18:44:10.618Z,15.30
2018-04-30T18:46:13.212Z,15.30
2018-04-30T18:48:15.858Z,15.40
2018-04-30T18:50:18.452Z,15.40
2018-04-30T18:52:21.118Z,15.50
2018-04-30T18:54:23.707Z,15.60
2018-04-30T18:56:26.416Z,15.50
2018-04-30T18:58:29.804Z,15.40
2018-04-30T19:00:33.170Z,15.30
2018-04-30T19:02:35.827Z,15.30
2018-04-30T19:04:38.430Z,15.40
2018-04-30T19:06:41.807Z,15.50
2018-04-30T19:08:44.522Z,15.50
2018-04-30T19:10:47.885Z,15.60
2018-04-30T19:12:50.569Z,15.60
2018-04-30T19:14:53.164Z,15.60
2018-04-30T19:16:56.519Z,15.50
2018-04-30T19:18:59.150Z,15.50
2018-04-30T19:21:01.754Z,15.60
2018-04-30T19:23:04.328Z,15.50
2018-04-30T19:25:06.937Z,15.50
2018-04-30T19:27:10.361Z,15.30
2018-04-30T19:29:12.955Z,15.30
2018-04-30T19:31:15.563Z,15.30
2018-04-30T19:33:18.183Z,15.20
2018-04-30T19:35:20.767Z,15.20
2018-04-30T19:37:23.387Z,15.20
2018-04-30T19:39:26.123Z,15.20
2018-04-30T19:41:28.712Z,15.10
2018-04-30T19:43:31.327Z,15.00
2018-04-30T19:45:33.984Z,15.00
2018-04-30T19:47:36.584Z,15.00
2018-04-30T19:49:39.222Z,15.00
2018-04-30T19:51:41.819Z,15.00
2018-04-30T19:53:44.421Z,14.90
2018-04-30T19:55:47.856Z,14.70
2018-04-30T19:57:50.466Z,14.70
2018-04-30T19:59:53.065Z,14.70
2018-04-30T20:01:56.424Z,14.60
2018-04-30T20:03:59.034Z,14.60
2018-04-30T20:06:02.397Z,14.70
2018-04-30T20:08:05.019Z,14.60
2018-04-30T20:10:07.653Z,14.60
2018-04-30T20:12:10.257Z,14.70
2018-04-30T20:14:12.887Z,14.70
2018-04-30T20:16:15.491Z,14.70
2018-04-30T20:18:18.855Z,14.70
2018-04-30T20:20:21.486Z,14.70
2018-04-30T20:22:24.064Z,14.80
2018-04-30T20:24:26.701Z,14.80
2018-04-30T20:26:29.285Z,14.80
2018-04-30T20:28:32.689Z,14.70
2018-04-30T20:30:35.281Z,14.70
2018-04-30T20:32:37.924Z,14.70
2018-04-30T20:34:41.313Z,14.70
2018-04-30T20:36:44.667Z,14.70
2018-04-30T20:38:48.048Z,14.60
2018-04-30T20:40:50.660Z,14.50
2018-04-30T20:42:53.259Z,14.50
2018-04-30T20:44:56.639Z,14.50
2018-04-30T20:46:59.988Z,14.40
2018-04-30T20:49:02.593Z,14.40
2018-04-30T20:51:05.192Z,14.30
2018-04-30T20:53:08.544Z,14.20
2018-04-30T20:55:11.162Z,14.20
2018-04-30T20:57:14.524Z,14.10
2018-04-30T20:59:17.133Z,14.10
2018-04-30T21:01:19.720Z,14.00
2018-04-30T21:03:22.327Z,14.00
2018-04-30T21:05:25.148Z,13.90
2018-04-30T21:07:28.492Z,13.80
2018-04-30T21:09:31.107Z,13.80
2018-04-30T21:11:34.472Z,13.80
2018-04-30T21:13:37.060Z,13.80
2018-04-30T21:15:39.884Z,13.80
2018-04-30T21:17:42.539Z,13.70
2018-04-30T21:19:45.096Z,13.70
2018-04-30T21:21:47.701Z,13.60
2018-04-30T21:23:50.301Z,13.60
2018-04-30T21:25:52.929Z,13.60
2018-04-30T21:27:56.287Z,13.40
2018-04-30T21:29:59.739Z,13.40
2018-04-30T21:32:02.383Z,13.30
2018-04-30T21:34:05.732Z,13.50
2018-04-30T21:36:08.339Z,13.40
2018-04-30T21:38:10.913Z,13.50
2018-04-30T21:40:13.581Z,13.60
2018-04-30T21:42:16.151Z,13.60
2018-04-30T21:44:18.728Z,13.70
2018-04-30T21:46:21.347Z,13.70
2018-04-30T21:48:23.927Z,13.70
2018-04-30T21:50:26.928Z,13.70
2018-04-30T21:52:30.276Z,13.80
2018-04-30T21:54:33.621Z,13.70
2018-04-30T21:56:36.246Z,13.80
2018-04-30T21:58:39.611Z,13.80
2018-04-30T22:00:42.282Z,13.80
2018-04-30T22:02:44.892Z,13.80
2018-04-30T22:04:48.247Z,13.80
2018-04-30T22:06:50.869Z,13.80
2018-04-30T22:08:53.484Z,13.80
2018-04-30T22:10:56.080Z,13.90
2018-04-30T22:12:58.676Z,13.90
2018-04-30T22:15:02.033Z,14.00
2018-04-30T22:17:04.642Z,14.00
2018-04-30T22:19:08.001Z,13.90
2018-04-30T22:21:10.621Z,13.90
2018-04-30T22:23:13.205Z,13.90
2018-04-30T22:25:15.832Z,13.90
2018-04-30T22:27:18.441Z,13.90
2018-04-30T22:29:21.804Z,13.90
2018-04-30T22:31:24.432Z,13.90
2018-04-30T22:33:27.019Z,13.90
2018-04-30T22:35:30.416Z,13.90
2018-04-30T22:37:33.005Z,13.90
2018-04-30T22:39:35.579Z,13.90
2018-04-30T22:41:38.212Z,13.90
2018-04-30T22:43:40.792Z,13.90
2018-04-30T22:45:43.395Z,13.90
2018-04-30T22:47:46.746Z,13.90
2018-04-30T22:49:49.316Z,13.90
2018-04-30T22:51:51.976Z,13.90
2018-04-30T22:53:55.356Z,13.80
2018-04-30T22:55:57.977Z,13.80
2018-04-30T22:58:00.553Z,13.80
2018-04-30T23:00:03.147Z,13.80
2018-04-30T23:02:05.795Z,13.80
2018-04-30T23:04:08.376Z,13.90
2018-04-30T23:06:10.981Z,13.90
2018-04-30T23:08:13.573Z,13.90
2018-04-30T23:10:16.158Z,13.80
2018-04-30T23:12:19.521Z,13.80
2018-04-30T23:14:22.135Z,13.80
2018-04-30T23:16:25.524Z,13.90
2018-04-30T23:18:28.868Z,13.90
2018-04-30T23:20:31.448Z,13.90
2018-04-30T23:22:37.935Z,13.90
2018-04-30T23:24:40.521Z,13.90
2018-04-30T23:26:43.916Z,13.90
2018-04-30T23:28:47.263Z,13.90
2018-04-30T23:30:49.876Z,13.90
2018-04-30T23:32:53.237Z,13.90
2018-04-30T23:34:56.598Z,13.90
2018-04-30T23:36:59.195Z,13.90
2018-04-30T23:39:01.803Z,13.90
2018-04-30T23:41:04.420Z,13.90
2018-04-30T23:43:06.991Z,13.90
2018-04-30T23:45:09.595Z,13.90
2018-04-30T23:47:12.200Z,13.90
2018-04-30T23:49:14.775Z,14.00
2018-04-30T23:51:17.383Z,14.00
2018-04-30T23:53:19.974Z,14.00
2018-04-30T23:55:22.574Z,14.10
2018-04-30T23:57:25.183Z,14.10
2018-04-30T23:59:28.531Z,14.00
